createdAt,value
2022-08-05T00:05:00.954Z,14.80
2022-08-05T00:10:10.749Z,14.27
2022-08-05T00:15:56.099Z,12.35
2022-08-05T00:20:36.451Z,12.55
2022-08-05T00:25:46.011Z,9.18
2022-08-05T00:30:52.116Z,9.05
2022-08-05T00:36:16.109Z,8.52
2022-08-05T00:41:52.053Z,6.57
2022-08-05T00:47:01.602Z,11.68
2022-08-05T00:52:07.034Z,6.43
2022-08-05T00:57:11.231Z,6.97
2022-08-05T01:02:14.053Z,6.75
2022-08-05T01:07:19.515Z,5.18
2022-08-05T01:12:29.829Z,4.63
2022-08-05T01:17:40.311Z,6.03
2022-08-05T01:23:14.409Z,6.97
2022-08-05T01:28:25.631Z,6.10
2022-08-05T01:33:35.490Z,5.18
2022-08-05T01:38:39.413Z,6.32
2022-08-05T01:43:44.191Z,5.47
2022-08-05T01:48:55.667Z,3.90
2022-08-05T01:54:02.127Z,5.68
2022-08-05T01:59:11.059Z,5.75
2022-08-05T02:04:17.830Z,6.95
2022-08-05T02:09:20.978Z,6.28
2022-08-05T02:14:31.906Z,5.90
2022-08-05T02:19:46.983Z,6.15
2022-08-05T02:24:54.195Z,7.72
2022-08-05T02:30:02.039Z,5.95
2022-08-05T02:35:15.036Z,5.78
2022-08-05T02:40:27.458Z,7.15
2022-08-05T02:45:52.977Z,16.20
2022-08-05T02:50:58.602Z,9.68
2022-08-05T02:56:03.363Z,7.65
2022-08-05T03:01:19.365Z,11.50
2022-08-05T03:06:55.668Z,12.68
2022-08-05T03:11:56.620Z,8.45
2022-08-05T03:17:06.095Z,7.25
2022-08-05T03:22:16.723Z,8.60
2022-08-05T03:27:22.472Z,6.70
2022-08-05T03:32:34.209Z,6.28
2022-08-05T03:37:46.212Z,8.35
2022-08-05T03:42:52.565Z,8.15
2022-08-05T03:47:58.353Z,8.70
2022-08-05T03:55:51.034Z,7.05
2022-08-05T03:58:36.551Z,8.75
2022-08-05T04:04:09.179Z,8.18
2022-08-05T04:09:08.521Z,6.85
2022-08-05T04:14:11.666Z,7.95
2022-08-05T04:19:22.595Z,10.50
2022-08-05T04:24:26.261Z,8.75
2022-08-05T04:29:30.571Z,5.88
2022-08-05T04:34:42.971Z,7.90
2022-08-05T04:39:46.350Z,9.57
2022-08-05T04:44:55.817Z,8.38
2022-08-05T04:50:02.582Z,7.40
2022-08-05T04:55:15.215Z,11.02
2022-08-05T05:00:19.246Z,8.15
2022-08-05T05:05:29.147Z,7.70
2022-08-05T05:10:33.773Z,8.40
2022-08-05T05:15:56.689Z,8.55
2022-08-05T05:21:01.166Z,8.70
2022-08-05T05:26:04.095Z,8.98
2022-08-05T05:31:08.968Z,9.23
2022-08-05T05:36:13.245Z,10.77
2022-08-05T05:41:17.595Z,9.38
2022-08-05T05:46:21.894Z,8.15
2022-08-05T05:51:28.054Z,9.20
2022-08-05T05:56:34.572Z,7.28
2022-08-05T06:01:40.108Z,7.93
2022-08-05T06:06:47.339Z,8.93
2022-08-05T06:11:59.245Z,9.18
2022-08-05T06:17:21.898Z,8.15
2022-08-05T06:22:30.011Z,8.50
2022-08-05T06:28:11.407Z,8.63
2022-08-05T06:32:55.731Z,7.93
2022-08-05T06:38:04.279Z,7.10
2022-08-05T06:43:59.831Z,5.00
2022-08-05T06:48:55.689Z,7.00
2022-08-05T06:54:04.201Z,6.55
2022-08-05T06:59:09.902Z,6.57
2022-08-05T07:09:24.843Z,5.60
2022-08-05T07:14:45.476Z,4.80
2022-08-05T07:20:16.657Z,5.85
2022-08-05T07:25:54.391Z,4.35
2022-08-05T07:30:38.679Z,5.30
2022-08-05T07:36:04.400Z,4.37
2022-08-05T07:42:08.760Z,8.73
2022-08-05T07:46:33.763Z,6.32
2022-08-05T07:51:48.583Z,5.57
2022-08-05T07:57:14.602Z,5.18
2022-08-05T08:02:26.812Z,5.18
2022-08-05T08:07:39.582Z,6.20
2022-08-05T08:12:58.784Z,6.90
2022-08-05T08:18:02.032Z,4.68
2022-08-05T08:23:07.471Z,8.35
2022-08-05T08:28:36.808Z,6.20
2022-08-05T08:33:54.427Z,7.25
2022-08-05T08:38:57.515Z,5.57
2022-08-05T08:45:18.599Z,5.53
2022-08-05T08:50:18.072Z,4.15
2022-08-05T08:54:56.914Z,3.78
2022-08-05T09:00:02.174Z,4.95
2022-08-05T09:05:17.509Z,4.05
2022-08-05T09:10:21.960Z,4.28
2022-08-05T09:15:32.352Z,5.82
2022-08-05T09:20:41.739Z,6.40
2022-08-05T09:25:59.970Z,4.25
2022-08-05T09:31:44.139Z,5.60
2022-08-05T09:36:45.927Z,5.70
2022-08-05T09:42:01.790Z,4.93
2022-08-05T09:47:15.531Z,5.75
2022-08-05T09:52:25.840Z,8.05
2022-08-05T09:57:35.233Z,5.90
2022-08-05T10:02:45.451Z,5.22
2022-08-05T10:08:35.538Z,5.95
2022-08-05T10:13:31.841Z,4.97
2022-08-05T10:18:49.730Z,5.85
2022-08-05T10:24:00.309Z,7.72
2022-08-05T10:29:03.730Z,2.92
2022-08-05T10:34:08.715Z,8.32
2022-08-05T10:40:03.219Z,5.28
2022-08-05T10:50:32.176Z,5.53
2022-08-05T10:56:03.389Z,4.55
2022-08-05T11:01:03.139Z,3.88
2022-08-05T11:06:16.210Z,8.93
2022-08-05T11:11:44.858Z,9.55
2022-08-05T11:17:59.859Z,10.65
2022-08-05T11:22:58.066Z,8.15
2022-08-05T11:28:43.158Z,3.97
2022-08-05T11:33:58.625Z,4.32
2022-08-05T11:39:02.902Z,7.68
2022-08-05T11:44:08.491Z,5.32
2022-08-05T11:49:14.619Z,4.13
2022-08-05T11:54:33.094Z,5.32
2022-08-05T11:59:49.471Z,6.80
2022-08-05T12:04:59.330Z,5.18
2022-08-05T12:10:06.370Z,8.23
2022-08-05T12:15:20.772Z,6.22
2022-08-05T12:20:41.583Z,9.82
2022-08-05T12:25:53.554Z,8.52
2022-08-05T12:30:57.703Z,7.53
2022-08-05T12:36:08.181Z,6.15
2022-08-05T12:41:16.129Z,2.65
2022-08-05T12:46:28.124Z,4.32
2022-08-05T12:52:12.081Z,3.28
2022-08-05T12:56:58.734Z,3.33
2022-08-05T13:02:07.684Z,3.75
2022-08-05T13:07:16.114Z,3.38
2022-08-05T13:12:23.032Z,4.72
2022-08-05T13:17:41.674Z,2.90
2022-08-05T13:22:49.827Z,4.18
2022-08-05T13:27:56.090Z,3.97
2022-08-05T13:38:06.033Z,2.60
2022-08-05T13:43:12.257Z,3.85
2022-08-05T13:48:57.308Z,3.00
2022-08-05T13:53:48.086Z,3.83
2022-08-05T13:58:53.856Z,3.67
2022-08-05T14:04:17.055Z,3.58
2022-08-05T14:09:21.808Z,3.85
2022-08-05T14:14:30.879Z,3.97
2022-08-05T14:19:55.281Z,2.92
2022-08-05T14:24:59.358Z,4.28
2022-08-05T14:30:04.288Z,3.58
2022-08-05T14:35:10.612Z,6.43
2022-08-05T14:40:16.902Z,2.77
2022-08-05T14:45:21.402Z,4.22
2022-08-05T14:50:26.057Z,3.70
2022-08-05T14:55:39.283Z,3.97
2022-08-05T15:00:59.806Z,4.95
2022-08-05T15:06:12.935Z,4.40
2022-08-05T15:11:18.414Z,4.47
2022-08-05T15:16:23.589Z,4.85
2022-08-05T15:21:26.703Z,4.05
2022-08-05T15:26:33.394Z,3.50
2022-08-05T15:31:37.665Z,5.50
2022-08-05T15:36:40.723Z,7.18
2022-08-05T15:41:57.591Z,7.20
2022-08-05T15:47:04.251Z,6.20
2022-08-05T15:52:16.282Z,5.95
2022-08-05T15:57:20.737Z,8.55
2022-08-05T16:02:25.431Z,2.55
2022-08-05T16:07:29.649Z,2.33
2022-08-05T16:12:32.653Z,2.83
2022-08-05T16:17:36.894Z,4.57
2022-08-05T16:22:39.777Z,2.40
2022-08-05T16:28:00.831Z,3.20
2022-08-05T16:33:08.810Z,2.25
2022-08-05T16:38:18.448Z,3.40
2022-08-05T16:43:30.217Z,3.33
2022-08-05T16:48:35.621Z,3.70
2022-08-05T16:54:05.728Z,1.40
2022-08-05T16:59:07.598Z,1.70
2022-08-05T17:09:18.172Z,2.47
2022-08-05T17:14:34.347Z,6.28
2022-08-05T17:19:43.761Z,2.45
2022-08-05T17:24:57.943Z,1.10
2022-08-05T17:30:02.370Z,2.05
2022-08-05T17:35:08.207Z,2.78
2022-08-05T17:40:22.453Z,2.15
2022-08-05T17:45:38.245Z,2.65
2022-08-05T17:50:43.179Z,2.33
2022-08-05T17:55:46.072Z,2.92
2022-08-05T18:00:51.035Z,3.65
2022-08-05T18:05:55.817Z,2.80
2022-08-05T18:11:04.982Z,4.15
2022-08-05T18:16:09.574Z,1.50
2022-08-05T18:31:33.140Z,2.75
2022-08-05T18:36:39.652Z,1.70
2022-08-05T18:41:56.549Z,2.13
2022-08-05T18:47:04.817Z,2.88
2022-08-05T18:52:33.154Z,1.38
2022-08-05T18:57:50.156Z,1.60
2022-08-05T19:02:57.865Z,1.50
2022-08-05T19:08:12.216Z,1.77
2022-08-05T19:13:16.935Z,1.48
2022-08-05T19:18:22.505Z,2.25
2022-08-05T19:24:05.655Z,4.45
2022-08-05T19:28:49.745Z,2.10
2022-08-05T19:33:56.539Z,3.22
2022-08-05T19:39:01.912Z,1.17
2022-08-05T19:44:12.767Z,2.40
2022-08-05T19:49:17.816Z,2.75
2022-08-05T19:54:31.226Z,2.63
2022-08-05T20:00:00.437Z,2.72
2022-08-05T20:04:58.788Z,0.88
2022-08-05T20:10:04.945Z,2.28
2022-08-05T20:15:48.987Z,2.85
2022-08-05T20:20:44.010Z,2.35
2022-08-05T20:25:49.212Z,1.23
2022-08-05T20:30:55.514Z,3.00
2022-08-05T20:35:58.539Z,1.95
2022-08-05T20:41:04.646Z,2.15
2022-08-05T20:46:18.376Z,4.93
2022-08-05T20:51:27.782Z,2.75
2022-08-05T20:56:41.911Z,2.28
2022-08-05T21:01:45.622Z,2.45
2022-08-05T21:06:48.569Z,2.20
2022-08-05T21:12:09.120Z,2.33
2022-08-05T21:17:14.737Z,4.50
2022-08-05T21:22:18.492Z,3.88
2022-08-05T21:27:27.197Z,4.97
2022-08-05T21:32:30.517Z,4.15
2022-08-05T21:37:35.005Z,2.45
2022-08-05T21:42:46.731Z,3.50
2022-08-05T21:47:55.940Z,3.45
2022-08-05T21:53:04.529Z,2.25
2022-08-05T21:58:12.705Z,5.28
2022-08-05T22:03:15.545Z,6.00
2022-08-05T22:08:28.114Z,2.28
2022-08-05T22:14:32.367Z,3.95
2022-08-05T22:19:57.344Z,2.45
2022-08-05T22:24:59.463Z,2.25
2022-08-05T22:30:04.299Z,4.55
2022-08-05T22:35:07.820Z,2.60
2022-08-05T22:40:11.156Z,3.45
2022-08-05T22:45:21.350Z,5.15
2022-08-05T22:50:27.757Z,2.80
2022-08-05T22:55:37.182Z,2.70
2022-08-05T23:00:56.825Z,2.58
2022-08-05T23:05:59.966Z,2.28
2022-08-05T23:11:03.871Z,4.88
2022-08-05T23:16:08.049Z,4.07
2022-08-05T23:21:11.323Z,2.00
2022-08-05T23:26:19.928Z,5.82
2022-08-05T23:31:25.878Z,2.25
2022-08-05T23:36:38.575Z,3.05
2022-08-05T23:41:48.596Z,3.97
2022-08-05T23:46:53.197Z,3.97
2022-08-05T23:52:16.472Z,2.80
2022-08-05T23:57:19.360Z,2.88
